sensor_id;sensor_type;location;lat;lon;timestamp;P1;durP1;ratioP1;P2;durP2;ratioP2
47784;SDS011;35233;55.686;37.848;2022-12-24T00:01:48;7.82;;;6.40;;
47784;SDS011;35233;55.686;37.848;2022-12-24T00:04:14;7.78;;;6.18;;
47784;SDS011;35233;55.686;37.848;2022-12-24T00:06:42;9.57;;;6.47;;
47784;SDS011;35233;55.686;37.848;2022-12-24T00:09:08;9.30;;;6.30;;
47784;SDS011;35233;55.686;37.848;2022-12-24T00:11:34;9.07;;;6.68;;
47784;SDS011;35233;55.686;37.848;2022-12-24T00:13:59;8.80;;;6.68;;
47784;SDS011;35233;55.686;37.848;2022-12-24T00:16:25;7.97;;;6.15;;
47784;SDS011;35233;55.686;37.848;2022-12-24T00:18:51;8.52;;;6.38;;
47784;SDS011;35233;55.686;37.848;2022-12-24T00:21:16;8.13;;;6.25;;
47784;SDS011;35233;55.686;37.848;2022-12-24T00:23:42;8.52;;;6.45;;
47784;SDS011;35233;55.686;37.848;2022-12-24T00:26:08;8.93;;;6.50;;
47784;SDS011;35233;55.686;37.848;2022-12-24T00:28:33;7.93;;;6.30;;
47784;SDS011;35233;55.686;37.848;2022-12-24T00:30:59;8.88;;;6.75;;
47784;SDS011;35233;55.686;37.848;2022-12-24T00:33:24;8.45;;;6.80;;
47784;SDS011;35233;55.686;37.848;2022-12-24T00:35:51;10.23;;;6.78;;
47784;SDS011;35233;55.686;37.848;2022-12-24T00:38:17;8.57;;;6.55;;
47784;SDS011;35233;55.686;37.848;2022-12-24T00:40:42;8.93;;;6.93;;
47784;SDS011;35233;55.686;37.848;2022-12-24T00:43:11;8.57;;;6.45;;
47784;SDS011;35233;55.686;37.848;2022-12-24T00:45:37;9.20;;;7.13;;
47784;SDS011;35233;55.686;37.848;2022-12-24T00:48:02;8.20;;;6.28;;
47784;SDS011;35233;55.686;37.848;2022-12-24T00:50:27;9.90;;;6.40;;
47784;SDS011;35233;55.686;37.848;2022-12-24T00:52:53;7.95;;;5.97;;
47784;SDS011;35233;55.686;37.848;2022-12-24T00:55:18;7.88;;;5.90;;
47784;SDS011;35233;55.686;37.848;2022-12-24T00:57:44;8.50;;;6.50;;
47784;SDS011;35233;55.686;37.848;2022-12-24T01:00:09;9.82;;;7.07;;
47784;SDS011;35233;55.686;37.848;2022-12-24T01:02:35;8.52;;;6.28;;
47784;SDS011;35233;55.686;37.848;2022-12-24T01:05:01;9.02;;;6.30;;
47784;SDS011;35233;55.686;37.848;2022-12-24T01:07:36;7.32;;;5.78;;
47784;SDS011;35233;55.686;37.848;2022-12-24T01:10:04;9.15;;;6.40;;
47784;SDS011;35233;55.686;37.848;2022-12-24T01:12:31;9.48;;;7.05;;
47784;SDS011;35233;55.686;37.848;2022-12-24T01:14:56;8.85;;;6.88;;
47784;SDS011;35233;55.686;37.848;2022-12-24T01:17:22;10.95;;;7.40;;
47784;SDS011;35233;55.686;37.848;2022-12-24T01:19:47;11.07;;;8.38;;
47784;SDS011;35233;55.686;37.848;2022-12-24T01:22:13;13.55;;;9.23;;
47784;SDS011;35233;55.686;37.848;2022-12-24T01:24:39;12.18;;;8.85;;
47784;SDS011;35233;55.686;37.848;2022-12-24T01:27:05;11.90;;;8.68;;
47784;SDS011;35233;55.686;37.848;2022-12-24T01:29:31;13.88;;;9.57;;
47784;SDS011;35233;55.686;37.848;2022-12-24T01:31:57;13.00;;;9.52;;
47784;SDS011;35233;55.686;37.848;2022-12-24T01:34:22;12.93;;;9.93;;
47784;SDS011;35233;55.686;37.848;2022-12-24T01:36:48;14.20;;;9.90;;
47784;SDS011;35233;55.686;37.848;2022-12-24T01:39:13;12.73;;;8.98;;
47784;SDS011;35233;55.686;37.848;2022-12-24T01:41:39;12.07;;;8.63;;
47784;SDS011;35233;55.686;37.848;2022-12-24T01:44:27;11.70;;;8.68;;
47784;SDS011;35233;55.686;37.848;2022-12-24T01:49:26;13.05;;;8.68;;
47784;SDS011;35233;55.686;37.848;2022-12-24T01:51:53;11.85;;;8.30;;
47784;SDS011;35233;55.686;37.848;2022-12-24T01:56:48;12.02;;;8.55;;
47784;SDS011;35233;55.686;37.848;2022-12-24T01:59:17;10.65;;;8.73;;
47784;SDS011;35233;55.686;37.848;2022-12-24T02:01:45;13.38;;;9.15;;
47784;SDS011;35233;55.686;37.848;2022-12-24T02:04:17;10.80;;;7.88;;
47784;SDS011;35233;55.686;37.848;2022-12-24T02:06:46;10.75;;;7.95;;
47784;SDS011;35233;55.686;37.848;2022-12-24T02:09:11;11.88;;;8.32;;
47784;SDS011;35233;55.686;37.848;2022-12-24T02:11:37;11.65;;;8.23;;
47784;SDS011;35233;55.686;37.848;2022-12-24T02:14:06;12.00;;;8.20;;
47784;SDS011;35233;55.686;37.848;2022-12-24T02:24:36;11.52;;;7.50;;
47784;SDS011;35233;55.686;37.848;2022-12-24T02:30:13;10.32;;;7.63;;
47784;SDS011;35233;55.686;37.848;2022-12-24T02:32:58;10.18;;;7.47;;
47784;SDS011;35233;55.686;37.848;2022-12-24T02:35:51;9.93;;;7.22;;
47784;SDS011;35233;55.686;37.848;2022-12-24T02:40:50;11.00;;;7.68;;
47784;SDS011;35233;55.686;37.848;2022-12-24T02:43:24;11.43;;;7.60;;
47784;SDS011;35233;55.686;37.848;2022-12-24T02:46:01;9.77;;;7.03;;
47784;SDS011;35233;55.686;37.848;2022-12-24T02:48:31;12.95;;;7.47;;
47784;SDS011;35233;55.686;37.848;2022-12-24T02:51:00;11.30;;;7.65;;
47784;SDS011;35233;55.686;37.848;2022-12-24T02:53:28;10.30;;;7.00;;
47784;SDS011;35233;55.686;37.848;2022-12-24T03:04:46;10.88;;;6.85;;
47784;SDS011;35233;55.686;37.848;2022-12-24T03:07:21;10.75;;;7.25;;
47784;SDS011;35233;55.686;37.848;2022-12-24T03:10:11;11.30;;;7.30;;
47784;SDS011;35233;55.686;37.848;2022-12-24T03:12:40;8.95;;;6.55;;
47784;SDS011;35233;55.686;37.848;2022-12-24T03:15:13;10.63;;;7.30;;
47784;SDS011;35233;55.686;37.848;2022-12-24T03:17:42;10.43;;;7.40;;
47784;SDS011;35233;55.686;37.848;2022-12-24T03:20:10;8.65;;;6.53;;
47784;SDS011;35233;55.686;37.848;2022-12-24T03:22:39;10.00;;;7.00;;
47784;SDS011;35233;55.686;37.848;2022-12-24T03:25:05;8.60;;;6.68;;
47784;SDS011;35233;55.686;37.848;2022-12-24T03:27:31;9.80;;;7.10;;
47784;SDS011;35233;55.686;37.848;2022-12-24T03:29:59;8.98;;;6.75;;
47784;SDS011;35233;55.686;37.848;2022-12-24T03:32:29;9.40;;;7.05;;
47784;SDS011;35233;55.686;37.848;2022-12-24T03:34:55;10.88;;;7.70;;
47784;SDS011;35233;55.686;37.848;2022-12-24T03:37:21;10.55;;;7.60;;
47784;SDS011;35233;55.686;37.848;2022-12-24T03:39:47;10.20;;;7.25;;
47784;SDS011;35233;55.686;37.848;2022-12-24T03:42:13;9.45;;;6.95;;
47784;SDS011;35233;55.686;37.848;2022-12-24T03:44:38;10.38;;;7.25;;
47784;SDS011;35233;55.686;37.848;2022-12-24T03:47:04;11.15;;;8.10;;
47784;SDS011;35233;55.686;37.848;2022-12-24T03:49:29;10.57;;;7.72;;
47784;SDS011;35233;55.686;37.848;2022-12-24T03:51:55;9.80;;;6.93;;
47784;SDS011;35233;55.686;37.848;2022-12-24T03:54:20;10.60;;;7.65;;
47784;SDS011;35233;55.686;37.848;2022-12-24T03:56:46;10.23;;;7.22;;
47784;SDS011;35233;55.686;37.848;2022-12-24T03:59:11;9.38;;;7.10;;
47784;SDS011;35233;55.686;37.848;2022-12-24T04:01:37;10.63;;;7.47;;
47784;SDS011;35233;55.686;37.848;2022-12-24T04:04:03;11.68;;;7.75;;
47784;SDS011;35233;55.686;37.848;2022-12-24T04:06:28;11.13;;;7.88;;
47784;SDS011;35233;55.686;37.848;2022-12-24T04:08:54;10.70;;;8.05;;
47784;SDS011;35233;55.686;37.848;2022-12-24T04:11:19;10.20;;;7.25;;
47784;SDS011;35233;55.686;37.848;2022-12-24T04:13:45;10.00;;;7.35;;
47784;SDS011;35233;55.686;37.848;2022-12-24T04:16:12;9.55;;;7.60;;
47784;SDS011;35233;55.686;37.848;2022-12-24T04:18:39;10.93;;;8.02;;
47784;SDS011;35233;55.686;37.848;2022-12-24T04:21:05;9.32;;;6.95;;
47784;SDS011;35233;55.686;37.848;2022-12-24T04:23:32;11.02;;;7.63;;
47784;SDS011;35233;55.686;37.848;2022-12-24T04:26:00;9.98;;;7.28;;
47784;SDS011;35233;55.686;37.848;2022-12-24T04:28:27;9.77;;;7.32;;
47784;SDS011;35233;55.686;37.848;2022-12-24T04:31:00;11.35;;;8.00;;
47784;SDS011;35233;55.686;37.848;2022-12-24T04:33:28;11.02;;;7.63;;
47784;SDS011;35233;55.686;37.848;2022-12-24T04:35:55;11.05;;;7.72;;
47784;SDS011;35233;55.686;37.848;2022-12-24T04:38:22;9.88;;;7.10;;
47784;SDS011;35233;55.686;37.848;2022-12-24T04:40:47;9.98;;;7.25;;
47784;SDS011;35233;55.686;37.848;2022-12-24T04:43:13;11.52;;;7.90;;
47784;SDS011;35233;55.686;37.848;2022-12-24T04:45:39;10.20;;;7.25;;
47784;SDS011;35233;55.686;37.848;2022-12-24T04:48:04;11.13;;;7.70;;
47784;SDS011;35233;55.686;37.848;2022-12-24T04:50:30;10.43;;;7.85;;
47784;SDS011;35233;55.686;37.848;2022-12-24T04:52:55;11.45;;;8.23;;
47784;SDS011;35233;55.686;37.848;2022-12-24T04:55:22;11.13;;;7.78;;
47784;SDS011;35233;55.686;37.848;2022-12-24T04:57:48;11.23;;;7.63;;
47784;SDS011;35233;55.686;37.848;2022-12-24T05:00:13;11.02;;;8.23;;
47784;SDS011;35233;55.686;37.848;2022-12-24T05:02:39;11.48;;;7.95;;
47784;SDS011;35233;55.686;37.848;2022-12-24T05:05:04;10.25;;;7.85;;
47784;SDS011;35233;55.686;37.848;2022-12-24T05:07:30;10.82;;;7.85;;
47784;SDS011;35233;55.686;37.848;2022-12-24T05:09:57;12.85;;;8.65;;
47784;SDS011;35233;55.686;37.848;2022-12-24T05:12:23;13.88;;;8.23;;
47784;SDS011;35233;55.686;37.848;2022-12-24T05:14:48;13.07;;;8.77;;
47784;SDS011;35233;55.686;37.848;2022-12-24T05:17:14;10.55;;;8.10;;
47784;SDS011;35233;55.686;37.848;2022-12-24T05:19:40;12.73;;;8.52;;
47784;SDS011;35233;55.686;37.848;2022-12-24T05:22:05;12.18;;;8.50;;
47784;SDS011;35233;55.686;37.848;2022-12-24T05:24:49;12.20;;;8.68;;
47784;SDS011;35233;55.686;37.848;2022-12-24T05:27:33;11.57;;;8.43;;
47784;SDS011;35233;55.686;37.848;2022-12-24T05:29:59;13.48;;;8.55;;
47784;SDS011;35233;55.686;37.848;2022-12-24T05:32:25;11.50;;;8.32;;
47784;SDS011;35233;55.686;37.848;2022-12-24T05:34:50;11.15;;;8.63;;
47784;SDS011;35233;55.686;37.848;2022-12-24T05:37:16;12.65;;;7.95;;
47784;SDS011;35233;55.686;37.848;2022-12-24T05:39:41;15.65;;;8.30;;
47784;SDS011;35233;55.686;37.848;2022-12-24T05:42:07;11.68;;;7.95;;
47784;SDS011;35233;55.686;37.848;2022-12-24T05:44:32;11.25;;;7.78;;
47784;SDS011;35233;55.686;37.848;2022-12-24T05:46:58;10.35;;;7.43;;
47784;SDS011;35233;55.686;37.848;2022-12-24T05:49:23;10.98;;;8.18;;
47784;SDS011;35233;55.686;37.848;2022-12-24T05:51:49;10.55;;;7.32;;
47784;SDS011;35233;55.686;37.848;2022-12-24T05:54:15;10.27;;;7.53;;
47784;SDS011;35233;55.686;37.848;2022-12-24T05:56:40;11.18;;;7.50;;
47784;SDS011;35233;55.686;37.848;2022-12-24T05:59:06;10.25;;;7.72;;
47784;SDS011;35233;55.686;37.848;2022-12-24T06:01:50;11.65;;;7.57;;
47784;SDS011;35233;55.686;37.848;2022-12-24T06:04:34;12.15;;;7.38;;
47784;SDS011;35233;55.686;37.848;2022-12-24T06:07:18;10.93;;;7.93;;
47784;SDS011;35233;55.686;37.848;2022-12-24T06:10:02;10.00;;;7.40;;
47784;SDS011;35233;55.686;37.848;2022-12-24T06:12:46;10.07;;;6.97;;
47784;SDS011;35233;55.686;37.848;2022-12-24T06:15:30;10.73;;;7.70;;
47784;SDS011;35233;55.686;37.848;2022-12-24T06:18:14;11.50;;;7.78;;
47784;SDS011;35233;55.686;37.848;2022-12-24T06:21:01;10.75;;;7.50;;
47784;SDS011;35233;55.686;37.848;2022-12-24T06:23:47;9.98;;;7.40;;
47784;SDS011;35233;55.686;37.848;2022-12-24T06:26:31;10.63;;;7.60;;
47784;SDS011;35233;55.686;37.848;2022-12-24T06:29:15;10.77;;;7.95;;
47784;SDS011;35233;55.686;37.848;2022-12-24T06:31:58;9.57;;;7.18;;
47784;SDS011;35233;55.686;37.848;2022-12-24T06:34:42;11.18;;;8.07;;
47784;SDS011;35233;55.686;37.848;2022-12-24T06:37:26;10.50;;;7.82;;
47784;SDS011;35233;55.686;37.848;2022-12-24T06:40:10;11.43;;;7.75;;
47784;SDS011;35233;55.686;37.848;2022-12-24T06:42:54;13.15;;;8.80;;
47784;SDS011;35233;55.686;37.848;2022-12-24T06:45:38;10.75;;;7.40;;
47784;SDS011;35233;55.686;37.848;2022-12-24T06:48:24;12.35;;;7.50;;
47784;SDS011;35233;55.686;37.848;2022-12-24T06:51:08;11.90;;;8.43;;
47784;SDS011;35233;55.686;37.848;2022-12-24T06:53:52;12.27;;;9.05;;
47784;SDS011;35233;55.686;37.848;2022-12-24T06:56:36;10.85;;;8.07;;
47784;SDS011;35233;55.686;37.848;2022-12-24T06:59:20;11.73;;;8.32;;
47784;SDS011;35233;55.686;37.848;2022-12-24T07:02:05;11.00;;;8.35;;
47784;SDS011;35233;55.686;37.848;2022-12-24T07:04:49;11.13;;;7.90;;
47784;SDS011;35233;55.686;37.848;2022-12-24T07:07:36;10.60;;;8.30;;
47784;SDS011;35233;55.686;37.848;2022-12-24T07:10:20;11.07;;;8.30;;
47784;SDS011;35233;55.686;37.848;2022-12-24T07:13:07;11.20;;;8.88;;
47784;SDS011;35233;55.686;37.848;2022-12-24T07:16:01;11.05;;;8.52;;
47784;SDS011;35233;55.686;37.848;2022-12-24T07:18:47;11.48;;;8.10;;
47784;SDS011;35233;55.686;37.848;2022-12-24T07:21:30;12.13;;;8.50;;
47784;SDS011;35233;55.686;37.848;2022-12-24T07:24:17;11.35;;;7.95;;
47784;SDS011;35233;55.686;37.848;2022-12-24T07:27:01;11.13;;;7.28;;
47784;SDS011;35233;55.686;37.848;2022-12-24T07:29:45;11.60;;;8.10;;
47784;SDS011;35233;55.686;37.848;2022-12-24T07:32:30;11.67;;;7.73;;
47784;SDS011;35233;55.686;37.848;2022-12-24T07:35:13;11.40;;;7.63;;
47784;SDS011;35233;55.686;37.848;2022-12-24T07:37:57;13.27;;;8.30;;
47784;SDS011;35233;55.686;37.848;2022-12-24T07:40:41;10.00;;;7.22;;
47784;SDS011;35233;55.686;37.848;2022-12-24T07:43:26;12.27;;;8.20;;
47784;SDS011;35233;55.686;37.848;2022-12-24T07:46:11;12.27;;;7.43;;
47784;SDS011;35233;55.686;37.848;2022-12-24T07:48:55;11.77;;;7.90;;
47784;SDS011;35233;55.686;37.848;2022-12-24T07:51:39;11.18;;;7.47;;
47784;SDS011;35233;55.686;37.848;2022-12-24T07:54:23;12.02;;;8.10;;
47784;SDS011;35233;55.686;37.848;2022-12-24T07:57:06;11.32;;;8.05;;
47784;SDS011;35233;55.686;37.848;2022-12-24T07:59:50;11.98;;;7.60;;
47784;SDS011;35233;55.686;37.848;2022-12-24T08:02:34;11.93;;;7.82;;
47784;SDS011;35233;55.686;37.848;2022-12-24T08:05:18;11.18;;;8.43;;
47784;SDS011;35233;55.686;37.848;2022-12-24T08:08:02;12.93;;;7.82;;
47784;SDS011;35233;55.686;37.848;2022-12-24T08:10:46;13.18;;;8.20;;
47784;SDS011;35233;55.686;37.848;2022-12-24T08:13:30;12.52;;;8.30;;
47784;SDS011;35233;55.686;37.848;2022-12-24T08:16:15;10.75;;;7.32;;
47784;SDS011;35233;55.686;37.848;2022-12-24T08:18:59;11.15;;;7.63;;
47784;SDS011;35233;55.686;37.848;2022-12-24T08:21:43;13.02;;;8.05;;
47784;SDS011;35233;55.686;37.848;2022-12-24T08:24:27;12.55;;;8.18;;
47784;SDS011;35233;55.686;37.848;2022-12-24T08:27:11;13.30;;;8.20;;
47784;SDS011;35233;55.686;37.848;2022-12-24T08:29:55;10.85;;;7.63;;
47784;SDS011;35233;55.686;37.848;2022-12-24T08:32:39;10.25;;;7.60;;
47784;SDS011;35233;55.686;37.848;2022-12-24T08:35:22;10.93;;;7.30;;
47784;SDS011;35233;55.686;37.848;2022-12-24T08:38:07;12.75;;;7.13;;
47784;SDS011;35233;55.686;37.848;2022-12-24T08:40:51;10.25;;;7.72;;
47784;SDS011;35233;55.686;37.848;2022-12-24T08:43:36;10.30;;;6.50;;
47784;SDS011;35233;55.686;37.848;2022-12-24T08:46:20;9.93;;;7.18;;
47784;SDS011;35233;55.686;37.848;2022-12-24T08:49:04;10.10;;;6.85;;
47784;SDS011;35233;55.686;37.848;2022-12-24T08:51:49;10.02;;;6.90;;
47784;SDS011;35233;55.686;37.848;2022-12-24T08:54:34;11.60;;;7.00;;
47784;SDS011;35233;55.686;37.848;2022-12-24T08:57:18;12.00;;;6.93;;
47784;SDS011;35233;55.686;37.848;2022-12-24T09:00:05;11.40;;;6.82;;
47784;SDS011;35233;55.686;37.848;2022-12-24T09:02:52;10.73;;;6.65;;
47784;SDS011;35233;55.686;37.848;2022-12-24T09:05:38;11.02;;;6.97;;
47784;SDS011;35233;55.686;37.848;2022-12-24T09:08:23;11.63;;;6.78;;
47784;SDS011;35233;55.686;37.848;2022-12-24T09:11:11;9.70;;;7.15;;
47784;SDS011;35233;55.686;37.848;2022-12-24T09:13:58;10.45;;;7.80;;
47784;SDS011;35233;55.686;37.848;2022-12-24T09:17:02;11.48;;;7.53;;
47784;SDS011;35233;55.686;37.848;2022-12-24T09:28:05;10.00;;;7.50;;
47784;SDS011;35233;55.686;37.848;2022-12-24T09:30:42;9.60;;;6.57;;
47784;SDS011;35233;55.686;37.848;2022-12-24T09:33:27;12.05;;;7.43;;
47784;SDS011;35233;55.686;37.848;2022-12-24T09:36:16;9.70;;;6.85;;
47784;SDS011;35233;55.686;37.848;2022-12-24T09:39:01;10.65;;;7.15;;
47784;SDS011;35233;55.686;37.848;2022-12-24T09:47:56;10.45;;;7.15;;
47784;SDS011;35233;55.686;37.848;2022-12-24T09:54:24;8.68;;;7.00;;
47784;SDS011;35233;55.686;37.848;2022-12-24T09:57:14;10.50;;;6.60;;
47784;SDS011;35233;55.686;37.848;2022-12-24T10:00:10;11.15;;;7.20;;
47784;SDS011;35233;55.686;37.848;2022-12-24T10:03:16;9.23;;;6.78;;
47784;SDS011;35233;55.686;37.848;2022-12-24T10:21:11;9.20;;;6.85;;
47784;SDS011;35233;55.686;37.848;2022-12-24T10:27:12;10.57;;;6.97;;
47784;SDS011;35233;55.686;37.848;2022-12-24T10:30:00;9.45;;;6.43;;
47784;SDS011;35233;55.686;37.848;2022-12-24T10:32:47;10.60;;;7.47;;
47784;SDS011;35233;55.686;37.848;2022-12-24T10:35:35;10.18;;;6.65;;
47784;SDS011;35233;55.686;37.848;2022-12-24T10:38:27;10.20;;;6.72;;
47784;SDS011;35233;55.686;37.848;2022-12-24T10:41:11;10.20;;;7.13;;
47784;SDS011;35233;55.686;37.848;2022-12-24T10:43:57;10.25;;;7.18;;
47784;SDS011;35233;55.686;37.848;2022-12-24T10:46:42;11.80;;;7.70;;
47784;SDS011;35233;55.686;37.848;2022-12-24T10:49:34;11.57;;;7.22;;
47784;SDS011;35233;55.686;37.848;2022-12-24T10:52:24;11.27;;;7.30;;
47784;SDS011;35233;55.686;37.848;2022-12-24T10:58:03;10.88;;;7.22;;
47784;SDS011;35233;55.686;37.848;2022-12-24T11:00:49;10.35;;;7.25;;
47784;SDS011;35233;55.686;37.848;2022-12-24T11:03:49;9.07;;;6.80;;
47784;SDS011;35233;55.686;37.848;2022-12-24T11:06:52;9.95;;;7.32;;
47784;SDS011;35233;55.686;37.848;2022-12-24T11:09:41;11.10;;;7.75;;
47784;SDS011;35233;55.686;37.848;2022-12-24T11:12:38;11.98;;;8.57;;
47784;SDS011;35233;55.686;37.848;2022-12-24T11:15:30;12.30;;;9.32;;
47784;SDS011;35233;55.686;37.848;2022-12-24T11:18:16;12.57;;;9.20;;
47784;SDS011;35233;55.686;37.848;2022-12-24T11:21:00;13.65;;;9.80;;
47784;SDS011;35233;55.686;37.848;2022-12-24T11:23:50;13.32;;;9.57;;
47784;SDS011;35233;55.686;37.848;2022-12-24T11:26:40;12.93;;;9.02;;
47784;SDS011;35233;55.686;37.848;2022-12-24T11:29:26;13.93;;;9.60;;
47784;SDS011;35233;55.686;37.848;2022-12-24T11:32:20;15.13;;;10.75;;
47784;SDS011;35233;55.686;37.848;2022-12-24T11:35:05;14.60;;;10.93;;
47784;SDS011;35233;55.686;37.848;2022-12-24T11:38:14;17.10;;;10.82;;
47784;SDS011;35233;55.686;37.848;2022-12-24T11:40:59;18.73;;;11.48;;
47784;SDS011;35233;55.686;37.848;2022-12-24T11:43:46;16.38;;;11.52;;
47784;SDS011;35233;55.686;37.848;2022-12-24T11:49:22;15.10;;;11.07;;
47784;SDS011;35233;55.686;37.848;2022-12-24T11:55:13;17.98;;;11.55;;
47784;SDS011;35233;55.686;37.848;2022-12-24T11:58:22;16.80;;;11.95;;
47784;SDS011;35233;55.686;37.848;2022-12-24T12:04:26;16.45;;;11.57;;
47784;SDS011;35233;55.686;37.848;2022-12-24T12:07:14;18.90;;;11.70;;
47784;SDS011;35233;55.686;37.848;2022-12-24T12:10:06;18.90;;;11.40;;
47784;SDS011;35233;55.686;37.848;2022-12-24T12:13:01;14.85;;;10.88;;
47784;SDS011;35233;55.686;37.848;2022-12-24T12:15:50;17.45;;;11.25;;
47784;SDS011;35233;55.686;37.848;2022-12-24T12:18:58;18.63;;;11.90;;
47784;SDS011;35233;55.686;37.848;2022-12-24T12:21:45;17.77;;;11.55;;
47784;SDS011;35233;55.686;37.848;2022-12-24T12:24:36;18.75;;;12.02;;
47784;SDS011;35233;55.686;37.848;2022-12-24T12:30:23;21.00;;;12.93;;
47784;SDS011;35233;55.686;37.848;2022-12-24T12:33:31;22.95;;;12.82;;
47784;SDS011;35233;55.686;37.848;2022-12-24T12:36:23;18.33;;;12.95;;
47784;SDS011;35233;55.686;37.848;2022-12-24T12:39:13;20.58;;;13.70;;
47784;SDS011;35233;55.686;37.848;2022-12-24T12:42:01;21.33;;;13.55;;
47784;SDS011;35233;55.686;37.848;2022-12-24T12:57:18;41.72;;;21.58;;
47784;SDS011;35233;55.686;37.848;2022-12-24T13:00:08;47.75;;;25.25;;
47784;SDS011;35233;55.686;37.848;2022-12-24T13:03:01;43.92;;;26.25;;
47784;SDS011;35233;55.686;37.848;2022-12-24T13:06:07;50.83;;;27.00;;
47784;SDS011;35233;55.686;37.848;2022-12-24T13:09:04;49.53;;;27.10;;
47784;SDS011;35233;55.686;37.848;2022-12-24T13:18:15;43.63;;;25.38;;
47784;SDS011;35233;55.686;37.848;2022-12-24T13:21:14;44.05;;;25.33;;
47784;SDS011;35233;55.686;37.848;2022-12-24T13:24:34;46.78;;;24.23;;
47784;SDS011;35233;55.686;37.848;2022-12-24T13:27:16;38.53;;;22.75;;
47784;SDS011;35233;55.686;37.848;2022-12-24T13:33:11;39.65;;;20.30;;
47784;SDS011;35233;55.686;37.848;2022-12-24T13:36:00;38.65;;;21.45;;
47784;SDS011;35233;55.686;37.848;2022-12-24T13:38:48;36.22;;;20.17;;
47784;SDS011;35233;55.686;37.848;2022-12-24T13:41:45;33.08;;;18.58;;
47784;SDS011;35233;55.686;37.848;2022-12-24T13:44:32;36.75;;;18.73;;
47784;SDS011;35233;55.686;37.848;2022-12-24T13:47:17;32.13;;;17.42;;
47784;SDS011;35233;55.686;37.848;2022-12-24T13:50:11;30.60;;;17.42;;
47784;SDS011;35233;55.686;37.848;2022-12-24T13:53:05;30.33;;;17.05;;
47784;SDS011;35233;55.686;37.848;2022-12-24T13:59:07;29.15;;;16.67;;
47784;SDS011;35233;55.686;37.848;2022-12-24T14:01:54;26.80;;;15.48;;
47784;SDS011;35233;55.686;37.848;2022-12-24T14:04:40;27.08;;;15.15;;
47784;SDS011;35233;55.686;37.848;2022-12-24T14:07:24;26.30;;;14.80;;
47784;SDS011;35233;55.686;37.848;2022-12-24T14:10:17;26.88;;;13.93;;
47784;SDS011;35233;55.686;37.848;2022-12-24T14:13:46;21.52;;;13.57;;
47784;SDS011;35233;55.686;37.848;2022-12-24T14:16:23;21.80;;;12.85;;
47784;SDS011;35233;55.686;37.848;2022-12-24T14:19:32;20.63;;;12.65;;
47784;SDS011;35233;55.686;37.848;2022-12-24T14:22:29;18.52;;;12.52;;
47784;SDS011;35233;55.686;37.848;2022-12-24T14:25:39;24.02;;;12.68;;
47784;SDS011;35233;55.686;37.848;2022-12-24T14:28:27;19.50;;;12.05;;
47784;SDS011;35233;55.686;37.848;2022-12-24T14:31:17;23.05;;;12.73;;
47784;SDS011;35233;55.686;37.848;2022-12-24T14:34:06;23.73;;;11.93;;
47784;SDS011;35233;55.686;37.848;2022-12-24T14:36:53;21.15;;;12.95;;
47784;SDS011;35233;55.686;37.848;2022-12-24T14:39:41;19.27;;;11.73;;
47784;SDS011;35233;55.686;37.848;2022-12-24T14:52:17;22.20;;;12.85;;
47784;SDS011;35233;55.686;37.848;2022-12-24T14:58:38;22.23;;;13.57;;
47784;SDS011;35233;55.686;37.848;2022-12-24T15:01:26;24.42;;;14.13;;
47784;SDS011;35233;55.686;37.848;2022-12-24T15:04:14;22.27;;;13.05;;
47784;SDS011;35233;55.686;37.848;2022-12-24T15:07:00;22.90;;;13.98;;
47784;SDS011;35233;55.686;37.848;2022-12-24T15:09:44;20.92;;;14.50;;
47784;SDS011;35233;55.686;37.848;2022-12-24T15:12:29;22.20;;;14.23;;
47784;SDS011;35233;55.686;37.848;2022-12-24T15:15:16;22.73;;;14.75;;
47784;SDS011;35233;55.686;37.848;2022-12-24T15:18:01;22.52;;;15.13;;
47784;SDS011;35233;55.686;37.848;2022-12-24T15:20:50;25.00;;;14.68;;
47784;SDS011;35233;55.686;37.848;2022-12-24T15:23:43;20.85;;;14.32;;
47784;SDS011;35233;55.686;37.848;2022-12-24T15:26:31;24.05;;;14.60;;
47784;SDS011;35233;55.686;37.848;2022-12-24T15:29:22;23.08;;;14.73;;
47784;SDS011;35233;55.686;37.848;2022-12-24T15:32:14;25.10;;;15.23;;
47784;SDS011;35233;55.686;37.848;2022-12-24T15:35:01;21.88;;;15.18;;
47784;SDS011;35233;55.686;37.848;2022-12-24T15:37:45;23.60;;;14.65;;
47784;SDS011;35233;55.686;37.848;2022-12-24T15:40:29;20.13;;;14.55;;
47784;SDS011;35233;55.686;37.848;2022-12-24T15:43:13;22.40;;;15.73;;
47784;SDS011;35233;55.686;37.848;2022-12-24T15:45:57;23.20;;;15.32;;
47784;SDS011;35233;55.686;37.848;2022-12-24T15:48:44;24.73;;;16.13;;
47784;SDS011;35233;55.686;37.848;2022-12-24T15:51:32;21.67;;;14.45;;
47784;SDS011;35233;55.686;37.848;2022-12-24T15:54:19;22.17;;;14.73;;
47784;SDS011;35233;55.686;37.848;2022-12-24T15:57:19;24.85;;;16.00;;
47784;SDS011;35233;55.686;37.848;2022-12-24T16:00:19;18.98;;;13.57;;
47784;SDS011;35233;55.686;37.848;2022-12-24T16:03:08;20.35;;;13.77;;
47784;SDS011;35233;55.686;37.848;2022-12-24T16:08:47;22.80;;;14.63;;
47784;SDS011;35233;55.686;37.848;2022-12-24T16:11:33;20.83;;;13.88;;
47784;SDS011;35233;55.686;37.848;2022-12-24T16:14:19;20.55;;;14.00;;
47784;SDS011;35233;55.686;37.848;2022-12-24T16:17:09;19.67;;;13.55;;
47784;SDS011;35233;55.686;37.848;2022-12-24T16:20:03;19.77;;;13.25;;
47784;SDS011;35233;55.686;37.848;2022-12-24T16:22:49;17.10;;;12.55;;
47784;SDS011;35233;55.686;37.848;2022-12-24T16:25:33;20.42;;;13.25;;
47784;SDS011;35233;55.686;37.848;2022-12-24T16:28:17;19.00;;;12.48;;
47784;SDS011;35233;55.686;37.848;2022-12-24T16:31:02;17.80;;;12.02;;
47784;SDS011;35233;55.686;37.848;2022-12-24T16:33:46;21.08;;;11.95;;
47784;SDS011;35233;55.686;37.848;2022-12-24T16:36:34;18.83;;;11.50;;
47784;SDS011;35233;55.686;37.848;2022-12-24T16:39:19;18.08;;;11.35;;
47784;SDS011;35233;55.686;37.848;2022-12-24T16:42:05;16.20;;;10.82;;
47784;SDS011;35233;55.686;37.848;2022-12-24T16:44:51;16.63;;;11.38;;
47784;SDS011;35233;55.686;37.848;2022-12-24T16:47:36;16.33;;;11.93;;
47784;SDS011;35233;55.686;37.848;2022-12-24T16:50:20;19.75;;;12.43;;
47784;SDS011;35233;55.686;37.848;2022-12-24T16:53:04;25.13;;;15.15;;
47784;SDS011;35233;55.686;37.848;2022-12-24T16:55:48;27.00;;;15.88;;
47784;SDS011;35233;55.686;37.848;2022-12-24T16:58:33;26.92;;;17.25;;
47784;SDS011;35233;55.686;37.848;2022-12-24T17:01:17;27.33;;;17.30;;
47784;SDS011;35233;55.686;37.848;2022-12-24T17:04:01;25.77;;;18.10;;
47784;SDS011;35233;55.686;37.848;2022-12-24T17:06:47;24.02;;;15.93;;
47784;SDS011;35233;55.686;37.848;2022-12-24T17:09:32;22.85;;;16.45;;
47784;SDS011;35233;55.686;37.848;2022-12-24T17:12:16;26.65;;;16.95;;
47784;SDS011;35233;55.686;37.848;2022-12-24T17:15:00;24.17;;;16.30;;
47784;SDS011;35233;55.686;37.848;2022-12-24T17:17:44;22.95;;;16.02;;
47784;SDS011;35233;55.686;37.848;2022-12-24T17:20:28;21.45;;;15.38;;
47784;SDS011;35233;55.686;37.848;2022-12-24T17:23:12;20.48;;;14.50;;
47784;SDS011;35233;55.686;37.848;2022-12-24T17:25:55;24.48;;;14.93;;
47784;SDS011;35233;55.686;37.848;2022-12-24T17:28:41;21.95;;;14.57;;
47784;SDS011;35233;55.686;37.848;2022-12-24T17:31:25;21.27;;;13.63;;
47784;SDS011;35233;55.686;37.848;2022-12-24T17:34:09;32.28;;;13.73;;